Monday, December 10, 2018, 10:26 PM EST
Back to Local

KAUG, Augusta State Airport

Location: Augusta, ME, United States Lat: 44.317
Local Time: 10:26 PM EST ( 3:26 GMT) Lon: -69.8
Time Zone: US/Eastern Elev: 351 ft

Show me the last for .
Show Coded

Time T Td Feel RH Dir Speed Gust Alt SLP Vis Weather Sky Remarks
2018-12-10 21:53 13 4 7 66 300° 3 - 30.17 30.19 10 CLR None
2018-12-10 20:53 13 4 2 66 360° 8 - 30.17 30.19 10 CLR None
2018-12-10 19:53 15 5 - 63 - Calm - 30.16 30.18 10 CLR None
2018-12-10 18:53 17 5 9 58 360° 6 - 30.15 30.18 10 CLR 6-hr Min Temp (7pm): 17.1°F
6-hr Max Temp (7pm): 25.0°F
2018-12-10 17:53 19 5 11 53 310° 6 - 30.14 30.16 10 CLR None
2018-12-10 16:53 21 5 11 49 320° 8 - 30.13 30.14 10 CLR None
2018-12-10 15:53 23 6 15 47 310° 7 - 30.11 30.13 10 CLR None
2018-12-10 14:53 24 6 15 45 330° 8 - 30.09 30.11 10 CLR None
2018-12-10 13:53 24 6 12 45 350° 13 - 30.08 30.10 10 CLR None
2018-12-10 12:53 25 7 11 45 350° 13 21 30.08 30.10 10 CLR 6-hr Min Temp (1pm): 15.1°F
6-hr Max Temp (1pm): 25.0°F
2018-12-10 11:53 24 7 13 47 350° 12 - 30.09 30.11 10 CLR None
2018-12-10 10:53 24 7 14 47 340° 9 - 30.11 30.13 10 CLR None
2018-12-10 09:53 23 10 12 56 320° 10 - 30.12 30.14 10 CLR None
2018-12-10 08:53 19 13 8 76 340° 9 - 30.10 30.12 10 CLR None
2018-12-10 07:53 20 15 - 81 - Calm - 30.09 30.11 10 FEW037 None
2018-12-10 06:53 18 14 8 84 40° 8 - 30.07 30.09 10 FEW038 6-hr Min Temp (7am): 15.1°F
6-hr Max Temp (7am): 23.0°F
2018-12-10 05:53 19 15 12 84 280° 5 - 30.05 30.07 10 CLR None
2018-12-10 04:53 16 14 6 91 360° 7 - 30.04 30.06 10 CLR None
2018-12-10 03:53 20 15 13 81 270° 5 - 30.02 30.03 10 CLR None
2018-12-10 02:53 20 16 15 84 150° 3 - 30.02 30.04 10 CLR None
2018-12-10 01:53 21 16 16 80 220° 3 - 30.04 30.05 10 CLR None
2018-12-10 00:53 22 16 13 77 240° 8 - 30.03 30.05 10 CLR 6-hr Min Temp (1am): 19.0°F
6-hr Max Temp (1am): 21.9°F
2018-12-09 23:53 19 15 11 84 210° 6 - 30.04 30.06 10 CLR 24-hr Min Temp (12am): 7.0°F
24-hr Max Temp (12am): 28.9°F
2018-12-09 22:53 21 15 16 77 200° 3 - 30.05 30.07 10 CLR None

Support USWX by starting your Amazon purchase here.